• Join FlightAware (Why Join?)
  • Login
  • US Flag 
12:30PM EDT


 

Airport Tracker/Info


-or-


 

Live Flight TrackerFlight Track Log ✈ DAL6034 ✈ 17-Jul-2013 ✈ KDTW - KALB

Flight Track Log - Related Links

Times and Time Zones

All times are in EDT time to prevent confusion due to time zone crossing. See the DAL6034 flight status page for this flight to view local times or setup timezone preferences in your user account.

Time Position Orientation Groundspeed Altitude Reporting Facility
EDT Latitude Longitude Course Direction KTS MPH feet Rate Location/Type
10:51AM 42.1994 -83.3608 71° East 170 196 1,300  Level Cleveland Center
10:52AM 42.1725 -83.3569 174° South 185 213 2,400 1,920 Climbing Cleveland Center
10:53AM 42.1161 -83.3544 178° South 220 253 4,300 1,920 Climbing Cleveland Center
10:54AM 42.0672 -83.3047 143° Southeast 260 299 6,500 1,860 Climbing Cleveland Center
10:55AM 42.3064 -82.8012 75° East  Level FlightAware Approximate
10:55AM 42.0594 -83.1953 95° East 291 335 8,300  Level Cleveland Center
10:56AM 42.3255 -82.6618 82° East  Level FlightAware Approximate
10:56AM 42.1039 -83.0767 63° Northeast 302 348 10,700  Level Cleveland Center
10:57AM 42.3482 -82.5237 71° East  Level FlightAware Approximate
10:57AM 42.1456 -82.9747 61° Northeast 302 348 12,100  Level Cleveland Center
10:58AM 42.1914 -82.8728 59° Northeast 302 348 13,600 1,500 Climbing Cleveland Center
10:59AM 42.2394 -82.7594 60° Northeast 315 362 15,100 1,500 Climbing Cleveland Center
11:00AM 42.2853 -82.6489 61° Northeast 327 376 16,600 1,440 Climbing Cleveland Center
11:01AM 42.3331 -82.5353 60° Northeast 332 382 18,000 1,260 Climbing Cleveland Center
11:02AM 42.3642 -82.4183 70° East 332 382 19,200 1,200 Climbing Cleveland Center
11:03AM 42.3600 -82.2858 92° East 326 375 20,500 1,140 Climbing Cleveland Center
11:04AM 42.3536 -82.1481 94° East 345 397 21,500 1,020 Climbing Cleveland Center
11:05AM 42.3472 -82.0047 93° East 375 432 22,600 1,080 Climbing Cleveland Center
11:06AM 42.3428 -81.8558 92° East 391 450 23,700 1,080 Climbing Cleveland Center
11:07AM 42.3358 -81.7067 94° East 396 456 24,800 960 Climbing Cleveland Center
11:08AM 42.3289 -81.5775 94° East 396 456 25,700 960 Climbing Cleveland Center
11:09AM 42.3236 -81.4286 93° East 396 456 26,800 1,080 Climbing Cleveland Center
11:10AM 42.3142 -81.2767 95° East 396 456 27,900 1,080 Climbing Cleveland Center
11:11AM 42.3089 -81.1278 90° East 396 456 29,000 1,080 Climbing Cleveland Center
11:12AM 42.3000 -81.1000 90° East  Level FlightAware Approximate
11:12AM 42.3011 -80.9789 94° East 402 463 30,100  Level Cleveland Center
11:13AM 42.2933 -80.8133 94° East 408 470 31,000 420 Climbing Cleveland Center
11:14AM 42.2831 -80.6561 95° East 411 473 31,000  Level Cleveland Center
11:15AM 42.2767 -80.4933 93° East 423 487 31,000  Level Cleveland Center
11:16AM 42.2661 -80.3333 95° East 428 493 31,000  Level Cleveland Center
11:18AM 42.2442 -80.0139 95° East 426 490 31,000  Level Cleveland Center
11:19AM 42.2392 -79.8736 93° East 421 484 31,000  Level Cleveland Center
11:20AM 42.2278 -79.7111 95° East 421 484 31,000  Level Cleveland Center
11:21AM 42.2200 -79.5542 94° East 421 484 31,000  Level Cleveland Center
11:22AM 42.2081 -79.3947 96° East 421 484 31,000  Level Cleveland Center
11:23AM 42.1939 -79.2350 97° East 421 484 31,000  Level Cleveland Center
11:24AM 42.1942 -79.0781 90° East 421 484 31,000  Level Cleveland Center
11:25AM 42.2128 -78.9181 81° East 421 484 31,000  Level Cleveland Center
11:26AM 42.2353 -78.7631 79° East 421 484 31,000  Level Cleveland Center
11:27AM 42.2556 -78.6056 80° East 426 490 31,000  Level Cleveland Center
11:28AM 42.2758 -78.4447 80° East 426 490 31,000  Level Cleveland Center
11:29AM 42.2936 -78.2897 81° East 426 490 31,000  Level Cleveland Center
11:30AM 42.3133 -78.1319 80° East 426 490 31,000  Level Cleveland Center
11:31AM 42.3328 -77.9739 80° East 426 490 31,000  Level Cleveland Center
11:32AM 42.3500 -77.8156 82° East 426 490 31,000 -300 Level Cleveland Center
11:33AM 42.3689 -77.6547 81° East 431 496 30,500 -720 Descending Cleveland Center
11:34AM 42.3856 -77.4992 82° East 426 490 29,600 -780 Descending Cleveland Center
11:35AM 42.4042 -77.3436 81° East 426 490 29,000 -240 Descending Cleveland Center
11:37AM 42.4383 -77.0406 81° East 427 491 29,000  Level Boston Center
11:38AM 42.4550 -76.8842 82° East 427 491 29,000  Level Boston Center
11:39AM 42.4717 -76.7247 82° East 427 491 29,000  Level Boston Center
11:40AM 42.4903 -76.5628 81° East 427 491 29,000  Level Boston Center
11:41AM 42.5064 -76.4033 82° East 427 491 29,000  Level Boston Center
11:42AM 42.5269 -76.2269 81° East 427 491 29,000  Level Boston Center
11:43AM 42.5383 -76.0669 84° East 427 491 29,000  Level Boston Center
11:44AM 42.5581 -75.9075 80° East 427 491 29,000  Level Boston Center
11:45AM 42.5733 -75.7447 83° East 427 491 29,000 -300 Level Boston Center
11:46AM 42.5853 -75.6156 83° East 427 491 28,500 -1,200 Descending Boston Center
11:47AM 42.5717 -75.4286 96° East 422 486 26,700 -1,680 Descending Boston Center
11:48AM 42.5128 -75.2822 119° Southeast 416 479 24,900 -1,980 Descending Boston Center
11:49AM 42.4650 -75.1083 110° East 416 479 22,400 -2,580 Descending Boston Center
11:50AM 42.5036 -74.9692 69° East 386 444 19,800 -2,640 Descending Boston Center
11:52AM 42.5347 -74.8248 74° East  Level Estimated
11:52AM 42.5653 -74.7067 74° East 386 444 14,900  Level Boston Center
11:53AM 42.5956 -74.5497 75° East 379 436 12,100 -2,280 Descending Boston Center
11:54AM 42.6133 -74.4797 71° East 367 422 11,000 -720 Descending Boston Center
11:55AM 42.6408 -74.3367 75° East 355 409 11,000  Level Boston Center
11:56AM 42.6569 -74.2583 74° East 356 410 11,000 -420 Level Boston Center
11:56AM 42.6728 -74.1683 77° East 348 400 10,500 -1,080 Descending Boston Center
11:57AM 42.6556 -74.0661 103° East 290 334 9,100 -1,860 Descending Boston Center
11:58AM 42.6214 -73.9694 116° Southeast 275 316 6,800 -2,220 Descending Boston Center
11:59AM 42.5992 -73.9153 119° Southeast 274 315 5,400 -1,920 Descending Boston Center
12:00PM 42.5478 -73.8547 139° Southeast 264 304 3,800 -1,500 Descending Boston Center
12:01PM 42.5425 -73.7900 96° East 243 280 2,800 -1,140 Descending Boston Center
12:01PM 42.5736 -73.7878 North 133 153 2,200 -1,020 Descending Boston Center